sensor_id;sensor_type;location;lat;lon;timestamp;P1;durP1;ratioP1;P2;durP2;ratioP2
41219;SDS011;26951;47.338;9.196;2022-10-24T00:00:25;6.18;;;2.33;;
41219;SDS011;26951;47.338;9.196;2022-10-24T00:03:10;8.37;;;2.00;;
41219;SDS011;26951;47.338;9.196;2022-10-24T00:05:54;5.22;;;2.00;;
41219;SDS011;26951;47.338;9.196;2022-10-24T00:08:40;5.15;;;1.85;;
41219;SDS011;26951;47.338;9.196;2022-10-24T00:11:26;2.80;;;1.58;;
41219;SDS011;26951;47.338;9.196;2022-10-24T00:14:11;5.30;;;2.00;;
41219;SDS011;26951;47.338;9.196;2022-10-24T00:16:55;5.78;;;1.90;;
41219;SDS011;26951;47.338;9.196;2022-10-24T00:19:40;4.32;;;2.20;;
41219;SDS011;26951;47.338;9.196;2022-10-24T00:22:24;7.50;;;2.70;;
41219;SDS011;26951;47.338;9.196;2022-10-24T00:25:08;5.33;;;2.17;;
41219;SDS011;26951;47.338;9.196;2022-10-24T00:27:52;4.00;;;1.80;;
41219;SDS011;26951;47.338;9.196;2022-10-24T00:30:37;3.88;;;2.22;;
41219;SDS011;26951;47.338;9.196;2022-10-24T00:33:21;5.38;;;2.40;;
41219;SDS011;26951;47.338;9.196;2022-10-24T00:36:08;5.93;;;2.17;;
41219;SDS011;26951;47.338;9.196;2022-10-24T00:39:03;5.10;;;1.90;;
41219;SDS011;26951;47.338;9.196;2022-10-24T00:41:47;4.22;;;1.80;;
41219;SDS011;26951;47.338;9.196;2022-10-24T00:44:32;2.83;;;1.95;;
41219;SDS011;26951;47.338;9.196;2022-10-24T00:47:23;7.30;;;2.13;;
41219;SDS011;26951;47.338;9.196;2022-10-24T00:50:11;4.75;;;2.28;;
41219;SDS011;26951;47.338;9.196;2022-10-24T00:52:57;8.73;;;2.10;;
41219;SDS011;26951;47.338;9.196;2022-10-24T00:55:42;4.50;;;2.10;;
41219;SDS011;26951;47.338;9.196;2022-10-24T00:58:29;4.85;;;2.08;;
41219;SDS011;26951;47.338;9.196;2022-10-24T01:04:47;4.78;;;2.40;;
41219;SDS011;26951;47.338;9.196;2022-10-24T01:07:42;5.45;;;2.10;;
41219;SDS011;26951;47.338;9.196;2022-10-24T01:10:56;5.47;;;2.13;;
41219;SDS011;26951;47.338;9.196;2022-10-24T01:14:11;4.90;;;1.98;;
41219;SDS011;26951;47.338;9.196;2022-10-24T01:17:15;3.40;;;2.15;;
41219;SDS011;26951;47.338;9.196;2022-10-24T01:20:11;6.43;;;1.90;;
41219;SDS011;26951;47.338;9.196;2022-10-24T01:35:35;6.40;;;2.67;;
41219;SDS011;26951;47.338;9.196;2022-10-24T01:38:27;6.87;;;2.10;;
41219;SDS011;26951;47.338;9.196;2022-10-24T01:41:25;3.40;;;1.92;;
41219;SDS011;26951;47.338;9.196;2022-10-24T01:44:17;5.28;;;2.20;;
41219;SDS011;26951;47.338;9.196;2022-10-24T01:47:10;6.85;;;2.50;;
41219;SDS011;26951;47.338;9.196;2022-10-24T01:50:00;6.78;;;3.15;;
41219;SDS011;26951;47.338;9.196;2022-10-24T01:52:47;4.60;;;2.20;;
41219;SDS011;26951;47.338;9.196;2022-10-24T01:55:33;4.60;;;2.47;;
41219;SDS011;26951;47.338;9.196;2022-10-24T02:01:07;6.10;;;2.40;;
41219;SDS011;26951;47.338;9.196;2022-10-24T02:03:56;5.38;;;2.63;;
41219;SDS011;26951;47.338;9.196;2022-10-24T02:06:44;4.03;;;2.75;;
41219;SDS011;26951;47.338;9.196;2022-10-24T02:09:30;6.05;;;2.63;;
41219;SDS011;26951;47.338;9.196;2022-10-24T02:12:18;8.48;;;3.70;;
41219;SDS011;26951;47.338;9.196;2022-10-24T02:15:05;8.20;;;3.22;;
41219;SDS011;26951;47.338;9.196;2022-10-24T02:17:55;7.03;;;2.90;;
41219;SDS011;26951;47.338;9.196;2022-10-24T02:20:42;4.15;;;2.45;;
41219;SDS011;26951;47.338;9.196;2022-10-24T02:29:17;3.83;;;2.42;;
41219;SDS011;26951;47.338;9.196;2022-10-24T02:32:25;6.33;;;3.17;;
41219;SDS011;26951;47.338;9.196;2022-10-24T02:35:14;6.47;;;2.92;;
41219;SDS011;26951;47.338;9.196;2022-10-24T02:38:14;10.10;;;3.65;;
41219;SDS011;26951;47.338;9.196;2022-10-24T02:41:06;5.88;;;2.97;;
41219;SDS011;26951;47.338;9.196;2022-10-24T02:43:52;6.00;;;2.60;;
41219;SDS011;26951;47.338;9.196;2022-10-24T02:46:38;7.47;;;2.47;;
41219;SDS011;26951;47.338;9.196;2022-10-24T02:49:19;5.18;;;2.60;;
41219;SDS011;26951;47.338;9.196;2022-10-24T02:52:04;8.60;;;3.90;;
41219;SDS011;26951;47.338;9.196;2022-10-24T02:54:49;6.40;;;2.38;;
41219;SDS011;26951;47.338;9.196;2022-10-24T02:57:33;7.13;;;2.47;;
41219;SDS011;26951;47.338;9.196;2022-10-24T03:00:17;6.90;;;2.20;;
41219;SDS011;26951;47.338;9.196;2022-10-24T03:03:01;7.82;;;2.95;;
41219;SDS011;26951;47.338;9.196;2022-10-24T03:05:46;5.25;;;2.53;;
41219;SDS011;26951;47.338;9.196;2022-10-24T03:08:30;5.57;;;2.45;;
41219;SDS011;26951;47.338;9.196;2022-10-24T03:11:14;5.00;;;2.17;;
41219;SDS011;26951;47.338;9.196;2022-10-24T03:13:59;5.07;;;2.00;;
41219;SDS011;26951;47.338;9.196;2022-10-24T03:16:43;7.55;;;1.90;;
41219;SDS011;26951;47.338;9.196;2022-10-24T03:19:28;5.75;;;2.63;;
41219;SDS011;26951;47.338;9.196;2022-10-24T03:22:12;4.72;;;1.92;;
41219;SDS011;26951;47.338;9.196;2022-10-24T03:24:56;5.25;;;2.20;;
41219;SDS011;26951;47.338;9.196;2022-10-24T03:27:43;5.95;;;2.28;;
41219;SDS011;26951;47.338;9.196;2022-10-24T03:30:27;9.40;;;2.20;;
41219;SDS011;26951;47.338;9.196;2022-10-24T03:33:12;5.30;;;2.08;;
41219;SDS011;26951;47.338;9.196;2022-10-24T03:35:56;6.88;;;2.30;;
41219;SDS011;26951;47.338;9.196;2022-10-24T03:38:40;5.32;;;1.85;;
41219;SDS011;26951;47.338;9.196;2022-10-24T03:41:24;3.28;;;2.03;;
41219;SDS011;26951;47.338;9.196;2022-10-24T03:44:08;4.22;;;2.10;;
41219;SDS011;26951;47.338;9.196;2022-10-24T03:46:52;6.63;;;2.00;;
41219;SDS011;26951;47.338;9.196;2022-10-24T03:49:37;5.32;;;2.05;;
41219;SDS011;26951;47.338;9.196;2022-10-24T03:52:21;4.07;;;1.73;;
41219;SDS011;26951;47.338;9.196;2022-10-24T03:55:05;6.03;;;2.25;;
41219;SDS011;26951;47.338;9.196;2022-10-24T03:57:49;4.90;;;1.80;;
41219;SDS011;26951;47.338;9.196;2022-10-24T04:00:33;6.72;;;1.90;;
41219;SDS011;26951;47.338;9.196;2022-10-24T04:03:22;4.68;;;1.85;;
41219;SDS011;26951;47.338;9.196;2022-10-24T04:06:07;3.88;;;1.42;;
41219;SDS011;26951;47.338;9.196;2022-10-24T04:08:51;2.67;;;1.90;;
41219;SDS011;26951;47.338;9.196;2022-10-24T04:11:36;4.60;;;1.40;;
41219;SDS011;26951;47.338;9.196;2022-10-24T04:14:20;3.10;;;1.63;;
41219;SDS011;26951;47.338;9.196;2022-10-24T04:17:04;3.83;;;1.50;;
41219;SDS011;26951;47.338;9.196;2022-10-24T04:19:48;4.70;;;1.90;;
41219;SDS011;26951;47.338;9.196;2022-10-24T04:22:33;3.55;;;1.58;;
41219;SDS011;26951;47.338;9.196;2022-10-24T04:25:17;6.10;;;1.90;;
41219;SDS011;26951;47.338;9.196;2022-10-24T04:28:02;6.60;;;2.50;;
41219;SDS011;26951;47.338;9.196;2022-10-24T04:30:46;4.85;;;1.73;;
41219;SDS011;26951;47.338;9.196;2022-10-24T04:33:30;2.80;;;1.30;;
41219;SDS011;26951;47.338;9.196;2022-10-24T04:36:14;4.45;;;1.70;;
41219;SDS011;26951;47.338;9.196;2022-10-24T04:38:58;4.07;;;1.60;;
41219;SDS011;26951;47.338;9.196;2022-10-24T04:41:42;4.80;;;1.70;;
41219;SDS011;26951;47.338;9.196;2022-10-24T04:44:26;3.50;;;1.60;;
41219;SDS011;26951;47.338;9.196;2022-10-24T04:47:10;6.78;;;1.55;;
41219;SDS011;26951;47.338;9.196;2022-10-24T04:49:55;6.15;;;1.88;;
41219;SDS011;26951;47.338;9.196;2022-10-24T04:52:39;3.28;;;1.60;;
41219;SDS011;26951;47.338;9.196;2022-10-24T04:55:23;6.63;;;2.95;;
41219;SDS011;26951;47.338;9.196;2022-10-24T04:58:07;3.30;;;1.40;;
41219;SDS011;26951;47.338;9.196;2022-10-24T05:00:51;5.90;;;1.88;;
41219;SDS011;26951;47.338;9.196;2022-10-24T05:03:35;4.20;;;1.98;;
41219;SDS011;26951;47.338;9.196;2022-10-24T05:06:19;2.53;;;1.45;;
41219;SDS011;26951;47.338;9.196;2022-10-24T05:09:04;1.85;;;1.38;;
41219;SDS011;26951;47.338;9.196;2022-10-24T05:11:48;4.00;;;2.07;;
41219;SDS011;26951;47.338;9.196;2022-10-24T05:14:32;4.88;;;1.70;;
41219;SDS011;26951;47.338;9.196;2022-10-24T05:17:16;3.85;;;1.67;;
41219;SDS011;26951;47.338;9.196;2022-10-24T05:20:00;7.70;;;2.38;;
41219;SDS011;26951;47.338;9.196;2022-10-24T05:22:45;6.07;;;1.80;;
41219;SDS011;26951;47.338;9.196;2022-10-24T05:25:29;4.15;;;2.53;;
41219;SDS011;26951;47.338;9.196;2022-10-24T05:28:13;4.05;;;1.45;;
41219;SDS011;26951;47.338;9.196;2022-10-24T05:30:57;4.20;;;1.73;;
41219;SDS011;26951;47.338;9.196;2022-10-24T05:33:41;3.83;;;2.03;;
41219;SDS011;26951;47.338;9.196;2022-10-24T05:36:25;3.38;;;1.55;;
41219;SDS011;26951;47.338;9.196;2022-10-24T05:39:10;3.00;;;1.58;;
41219;SDS011;26951;47.338;9.196;2022-10-24T05:41:54;3.40;;;1.88;;
41219;SDS011;26951;47.338;9.196;2022-10-24T05:44:38;3.53;;;1.85;;
41219;SDS011;26951;47.338;9.196;2022-10-24T05:47:22;4.55;;;1.48;;
41219;SDS011;26951;47.338;9.196;2022-10-24T05:50:07;5.05;;;1.67;;
41219;SDS011;26951;47.338;9.196;2022-10-24T05:55:36;4.95;;;1.88;;
41219;SDS011;26951;47.338;9.196;2022-10-24T05:58:21;5.30;;;2.47;;
41219;SDS011;26951;47.338;9.196;2022-10-24T06:01:04;6.13;;;1.58;;
41219;SDS011;26951;47.338;9.196;2022-10-24T06:03:49;3.40;;;2.13;;
41219;SDS011;26951;47.338;9.196;2022-10-24T06:06:36;8.02;;;2.75;;
41219;SDS011;26951;47.338;9.196;2022-10-24T06:09:22;7.57;;;2.70;;
41219;SDS011;26951;47.338;9.196;2022-10-24T06:12:07;5.70;;;2.10;;
41219;SDS011;26951;47.338;9.196;2022-10-24T06:17:40;4.72;;;2.90;;
41219;SDS011;26951;47.338;9.196;2022-10-24T06:20:24;4.50;;;2.78;;
41219;SDS011;26951;47.338;9.196;2022-10-24T06:23:08;3.30;;;1.63;;
41219;SDS011;26951;47.338;9.196;2022-10-24T06:25:52;3.35;;;1.73;;
41219;SDS011;26951;47.338;9.196;2022-10-24T06:28:36;3.38;;;1.40;;
41219;SDS011;26951;47.338;9.196;2022-10-24T06:31:21;3.25;;;1.52;;
41219;SDS011;26951;47.338;9.196;2022-10-24T06:34:05;6.38;;;2.03;;
41219;SDS011;26951;47.338;9.196;2022-10-24T06:36:49;4.03;;;1.55;;
41219;SDS011;26951;47.338;9.196;2022-10-24T06:39:34;4.45;;;1.80;;
41219;SDS011;26951;47.338;9.196;2022-10-24T06:42:18;5.78;;;1.77;;
41219;SDS011;26951;47.338;9.196;2022-10-24T06:45:02;4.60;;;1.50;;
41219;SDS011;26951;47.338;9.196;2022-10-24T06:47:47;2.25;;;1.10;;
41219;SDS011;26951;47.338;9.196;2022-10-24T06:53:16;5.03;;;1.38;;
41219;SDS011;26951;47.338;9.196;2022-10-24T06:56:01;4.15;;;1.52;;
41219;SDS011;26951;47.338;9.196;2022-10-24T06:58:46;3.80;;;1.10;;
41219;SDS011;26951;47.338;9.196;2022-10-24T07:01:30;3.25;;;1.90;;
41219;SDS011;26951;47.338;9.196;2022-10-24T07:04:15;2.70;;;1.93;;
41219;SDS011;26951;47.338;9.196;2022-10-24T07:06:59;3.00;;;1.50;;
41219;SDS011;26951;47.338;9.196;2022-10-24T07:09:43;1.90;;;1.20;;
41219;SDS011;26951;47.338;9.196;2022-10-24T07:12:33;8.20;;;1.80;;
41219;SDS011;26951;47.338;9.196;2022-10-24T07:15:17;3.35;;;1.30;;
41219;SDS011;26951;47.338;9.196;2022-10-24T07:18:01;3.55;;;1.48;;
41219;SDS011;26951;47.338;9.196;2022-10-24T07:20:46;4.80;;;2.22;;
41219;SDS011;26951;47.338;9.196;2022-10-24T07:23:30;4.87;;;2.20;;
41219;SDS011;26951;47.338;9.196;2022-10-24T07:26:15;6.73;;;2.10;;
41219;SDS011;26951;47.338;9.196;2022-10-24T07:29:00;3.78;;;2.00;;
41219;SDS011;26951;47.338;9.196;2022-10-24T07:31:45;2.38;;;1.80;;
41219;SDS011;26951;47.338;9.196;2022-10-24T07:34:30;3.17;;;1.80;;
41219;SDS011;26951;47.338;9.196;2022-10-24T07:37:15;4.68;;;2.30;;
41219;SDS011;26951;47.338;9.196;2022-10-24T07:39:59;4.43;;;2.38;;
41219;SDS011;26951;47.338;9.196;2022-10-24T07:42:44;5.07;;;2.65;;
41219;SDS011;26951;47.338;9.196;2022-10-24T07:45:28;3.83;;;2.23;;
41219;SDS011;26951;47.338;9.196;2022-10-24T07:48:14;5.47;;;1.95;;
41219;SDS011;26951;47.338;9.196;2022-10-24T07:50:58;3.50;;;1.80;;
41219;SDS011;26951;47.338;9.196;2022-10-24T07:53:43;3.27;;;1.50;;
41219;SDS011;26951;47.338;9.196;2022-10-24T07:56:28;2.47;;;1.65;;
41219;SDS011;26951;47.338;9.196;2022-10-24T07:59:12;2.65;;;1.60;;
41219;SDS011;26951;47.338;9.196;2022-10-24T08:01:56;6.13;;;1.98;;
41219;SDS011;26951;47.338;9.196;2022-10-24T08:04:40;4.80;;;2.60;;
41219;SDS011;26951;47.338;9.196;2022-10-24T08:07:24;2.13;;;1.83;;
41219;SDS011;26951;47.338;9.196;2022-10-24T08:10:10;2.75;;;1.75;;
41219;SDS011;26951;47.338;9.196;2022-10-24T08:12:55;4.88;;;2.15;;
41219;SDS011;26951;47.338;9.196;2022-10-24T08:15:39;4.80;;;2.38;;
41219;SDS011;26951;47.338;9.196;2022-10-24T08:18:23;4.60;;;2.00;;
41219;SDS011;26951;47.338;9.196;2022-10-24T08:21:08;5.82;;;1.85;;
41219;SDS011;26951;47.338;9.196;2022-10-24T08:23:54;3.38;;;1.52;;
41219;SDS011;26951;47.338;9.196;2022-10-24T08:26:38;2.78;;;1.33;;
41219;SDS011;26951;47.338;9.196;2022-10-24T08:29:23;4.45;;;1.65;;
41219;SDS011;26951;47.338;9.196;2022-10-24T08:32:07;2.42;;;1.75;;
41219;SDS011;26951;47.338;9.196;2022-10-24T08:34:52;2.35;;;1.60;;
41219;SDS011;26951;47.338;9.196;2022-10-24T08:37:36;2.75;;;1.55;;
41219;SDS011;26951;47.338;9.196;2022-10-24T08:40:21;2.65;;;1.67;;
41219;SDS011;26951;47.338;9.196;2022-10-24T08:43:05;4.85;;;1.83;;
41219;SDS011;26951;47.338;9.196;2022-10-24T08:48:42;1.95;;;1.50;;
41219;SDS011;26951;47.338;9.196;2022-10-24T08:51:37;3.92;;;1.80;;
41219;SDS011;26951;47.338;9.196;2022-10-24T08:54:28;4.85;;;1.98;;
41219;SDS011;26951;47.338;9.196;2022-10-24T08:57:23;4.18;;;2.00;;
41219;SDS011;26951;47.338;9.196;2022-10-24T09:00:20;4.65;;;1.88;;
41219;SDS011;26951;47.338;9.196;2022-10-24T09:03:21;3.45;;;1.80;;
41219;SDS011;26951;47.338;9.196;2022-10-24T09:06:13;2.97;;;1.45;;
41219;SDS011;26951;47.338;9.196;2022-10-24T09:09:02;3.35;;;1.55;;
41219;SDS011;26951;47.338;9.196;2022-10-24T09:12:10;2.67;;;1.67;;
41219;SDS011;26951;47.338;9.196;2022-10-24T09:14:57;2.60;;;1.80;;
41219;SDS011;26951;47.338;9.196;2022-10-24T09:17:42;4.03;;;1.67;;
41219;SDS011;26951;47.338;9.196;2022-10-24T09:20:28;2.47;;;1.48;;
41219;SDS011;26951;47.338;9.196;2022-10-24T09:23:16;3.55;;;1.45;;
41219;SDS011;26951;47.338;9.196;2022-10-24T09:26:02;1.73;;;1.25;;
41219;SDS011;26951;47.338;9.196;2022-10-24T09:28:49;2.75;;;1.27;;
41219;SDS011;26951;47.338;9.196;2022-10-24T09:31:33;2.47;;;1.60;;
41219;SDS011;26951;47.338;9.196;2022-10-24T09:34:18;4.10;;;1.40;;
41219;SDS011;26951;47.338;9.196;2022-10-24T09:37:02;5.38;;;1.88;;
41219;SDS011;26951;47.338;9.196;2022-10-24T09:39:46;2.85;;;1.73;;
41219;SDS011;26951;47.338;9.196;2022-10-24T09:42:38;4.10;;;1.85;;
41219;SDS011;26951;47.338;9.196;2022-10-24T09:51:24;4.30;;;1.90;;
41219;SDS011;26951;47.338;9.196;2022-10-24T09:57:22;2.83;;;1.50;;
41219;SDS011;26951;47.338;9.196;2022-10-24T10:00:19;4.78;;;1.85;;
41219;SDS011;26951;47.338;9.196;2022-10-24T10:03:19;2.90;;;1.60;;
41219;SDS011;26951;47.338;9.196;2022-10-24T10:06:15;3.28;;;2.05;;
41219;SDS011;26951;47.338;9.196;2022-10-24T10:09:01;3.88;;;1.60;;
41219;SDS011;26951;47.338;9.196;2022-10-24T10:11:56;4.78;;;1.80;;
41219;SDS011;26951;47.338;9.196;2022-10-24T10:14:41;4.05;;;1.52;;
41219;SDS011;26951;47.338;9.196;2022-10-24T10:17:26;4.13;;;1.52;;
41219;SDS011;26951;47.338;9.196;2022-10-24T10:20:24;3.67;;;1.80;;
41219;SDS011;26951;47.338;9.196;2022-10-24T10:23:27;5.13;;;1.23;;
41219;SDS011;26951;47.338;9.196;2022-10-24T10:32:06;2.67;;;1.30;;
41219;SDS011;26951;47.338;9.196;2022-10-24T10:35:09;4.25;;;1.95;;
41219;SDS011;26951;47.338;9.196;2022-10-24T10:44:37;2.30;;;1.40;;
41219;SDS011;26951;47.338;9.196;2022-10-24T10:53:38;3.08;;;1.55;;
41219;SDS011;26951;47.338;9.196;2022-10-24T10:57:02;1.98;;;1.33;;
41219;SDS011;26951;47.338;9.196;2022-10-24T10:59:57;2.65;;;1.52;;
41219;SDS011;26951;47.338;9.196;2022-10-24T11:12:21;2.35;;;1.30;;
41219;SDS011;26951;47.338;9.196;2022-10-24T11:18:05;1.05;;;0.63;;
41219;SDS011;26951;47.338;9.196;2022-10-24T11:21:06;1.40;;;1.10;;
41219;SDS011;26951;47.338;9.196;2022-10-24T11:23:54;1.40;;;1.02;;
41219;SDS011;26951;47.338;9.196;2022-10-24T11:26:59;2.75;;;1.10;;
41219;SDS011;26951;47.338;9.196;2022-10-24T11:29:54;1.25;;;0.90;;
41219;SDS011;26951;47.338;9.196;2022-10-24T11:32:46;0.77;;;0.68;;
41219;SDS011;26951;47.338;9.196;2022-10-24T11:35:37;1.33;;;0.80;;
41219;SDS011;26951;47.338;9.196;2022-10-24T11:38:27;1.45;;;0.90;;
41219;SDS011;26951;47.338;9.196;2022-10-24T11:41:17;2.35;;;1.20;;
41219;SDS011;26951;47.338;9.196;2022-10-24T11:44:28;0.68;;;0.60;;
41219;SDS011;26951;47.338;9.196;2022-10-24T11:59:14;2.58;;;0.90;;
41219;SDS011;26951;47.338;9.196;2022-10-24T12:08:12;1.60;;;0.93;;
41219;SDS011;26951;47.338;9.196;2022-10-24T12:14:53;1.55;;;0.88;;
41219;SDS011;26951;47.338;9.196;2022-10-24T12:17:52;4.85;;;1.00;;
41219;SDS011;26951;47.338;9.196;2022-10-24T12:20:40;1.65;;;0.75;;
41219;SDS011;26951;47.338;9.196;2022-10-24T12:23:24;1.53;;;0.77;;
41219;SDS011;26951;47.338;9.196;2022-10-24T12:26:17;1.95;;;0.93;;
41219;SDS011;26951;47.338;9.196;2022-10-24T12:29:03;2.30;;;1.23;;
41219;SDS011;26951;47.338;9.196;2022-10-24T12:31:50;2.78;;;1.80;;
41219;SDS011;26951;47.338;9.196;2022-10-24T12:34:39;1.83;;;1.40;;
41219;SDS011;26951;47.338;9.196;2022-10-24T12:37:30;1.60;;;1.30;;
41219;SDS011;26951;47.338;9.196;2022-10-24T12:43:34;3.10;;;2.22;;
41219;SDS011;26951;47.338;9.196;2022-10-24T12:51:51;2.47;;;1.35;;
41219;SDS011;26951;47.338;9.196;2022-10-24T12:54:37;1.88;;;1.40;;
41219;SDS011;26951;47.338;9.196;2022-10-24T12:57:27;0.82;;;0.82;;
41219;SDS011;26951;47.338;9.196;2022-10-24T13:00:23;1.45;;;1.10;;
41219;SDS011;26951;47.338;9.196;2022-10-24T13:03:19;2.60;;;1.17;;
41219;SDS011;26951;47.338;9.196;2022-10-24T13:09:39;0.82;;;0.80;;
41219;SDS011;26951;47.338;9.196;2022-10-24T13:24:40;1.48;;;1.38;;
41219;SDS011;26951;47.338;9.196;2022-10-24T13:27:25;1.20;;;1.00;;
41219;SDS011;26951;47.338;9.196;2022-10-24T13:30:24;1.70;;;1.08;;
41219;SDS011;26951;47.338;9.196;2022-10-24T13:36:16;1.27;;;0.90;;
41219;SDS011;26951;47.338;9.196;2022-10-24T13:39:09;2.40;;;1.20;;
41219;SDS011;26951;47.338;9.196;2022-10-24T13:41:59;1.00;;;0.82;;
41219;SDS011;26951;47.338;9.196;2022-10-24T13:44:47;1.27;;;1.00;;
41219;SDS011;26951;47.338;9.196;2022-10-24T13:47:35;1.20;;;1.00;;
41219;SDS011;26951;47.338;9.196;2022-10-24T13:50:27;1.15;;;1.05;;
41219;SDS011;26951;47.338;9.196;2022-10-24T13:53:21;2.22;;;1.20;;
41219;SDS011;26951;47.338;9.196;2022-10-24T13:56:08;4.38;;;1.38;;
41219;SDS011;26951;47.338;9.196;2022-10-24T13:58:55;2.40;;;1.15;;
41219;SDS011;26951;47.338;9.196;2022-10-24T14:01:40;1.85;;;1.23;;
41219;SDS011;26951;47.338;9.196;2022-10-24T14:04:24;1.67;;;1.38;;
41219;SDS011;26951;47.338;9.196;2022-10-24T14:07:09;1.50;;;1.13;;
41219;SDS011;26951;47.338;9.196;2022-10-24T14:10:10;4.05;;;1.95;;
41219;SDS011;26951;47.338;9.196;2022-10-24T14:12:57;1.95;;;1.25;;
41219;SDS011;26951;47.338;9.196;2022-10-24T14:18:31;3.42;;;1.45;;
41219;SDS011;26951;47.338;9.196;2022-10-24T14:21:20;1.58;;;1.17;;
41219;SDS011;26951;47.338;9.196;2022-10-24T14:24:05;0.80;;;0.70;;
41219;SDS011;26951;47.338;9.196;2022-10-24T14:26:56;1.42;;;1.20;;
41219;SDS011;26951;47.338;9.196;2022-10-24T14:29:58;1.93;;;1.00;;
41219;SDS011;26951;47.338;9.196;2022-10-24T14:32:44;1.13;;;0.98;;
41219;SDS011;26951;47.338;9.196;2022-10-24T14:35:28;2.38;;;1.05;;
41219;SDS011;26951;47.338;9.196;2022-10-24T14:38:13;1.92;;;1.10;;
41219;SDS011;26951;47.338;9.196;2022-10-24T14:41:00;1.20;;;1.10;;
41219;SDS011;26951;47.338;9.196;2022-10-24T14:43:45;1.70;;;0.80;;
41219;SDS011;26951;47.338;9.196;2022-10-24T14:49:27;2.17;;;1.00;;
41219;SDS011;26951;47.338;9.196;2022-10-24T14:52:37;1.42;;;0.60;;
41219;SDS011;26951;47.338;9.196;2022-10-24T14:55:21;1.35;;;0.95;;
41219;SDS011;26951;47.338;9.196;2022-10-24T14:58:05;1.90;;;1.45;;
41219;SDS011;26951;47.338;9.196;2022-10-24T15:01:02;3.17;;;1.08;;
41219;SDS011;26951;47.338;9.196;2022-10-24T15:04:05;1.92;;;1.00;;
41219;SDS011;26951;47.338;9.196;2022-10-24T15:06:49;1.75;;;1.20;;
41219;SDS011;26951;47.338;9.196;2022-10-24T15:09:58;2.92;;;0.88;;
41219;SDS011;26951;47.338;9.196;2022-10-24T15:18:41;3.00;;;1.70;;
41219;SDS011;26951;47.338;9.196;2022-10-24T15:21:26;5.10;;;1.13;;
41219;SDS011;26951;47.338;9.196;2022-10-24T15:24:24;3.28;;;1.98;;
41219;SDS011;26951;47.338;9.196;2022-10-24T15:27:10;3.53;;;1.70;;
41219;SDS011;26951;47.338;9.196;2022-10-24T15:29:55;1.52;;;0.98;;
41219;SDS011;26951;47.338;9.196;2022-10-24T15:32:39;1.30;;;1.20;;
41219;SDS011;26951;47.338;9.196;2022-10-24T15:35:24;2.28;;;0.98;;
41219;SDS011;26951;47.338;9.196;2022-10-24T15:38:12;0.80;;;0.80;;
41219;SDS011;26951;47.338;9.196;2022-10-24T15:40:58;1.15;;;1.00;;
41219;SDS011;26951;47.338;9.196;2022-10-24T15:43:42;2.97;;;1.02;;
41219;SDS011;26951;47.338;9.196;2022-10-24T15:46:27;0.95;;;0.70;;
41219;SDS011;26951;47.338;9.196;2022-10-24T15:49:11;1.73;;;0.73;;
41219;SDS011;26951;47.338;9.196;2022-10-24T15:51:56;1.05;;;0.88;;
41219;SDS011;26951;47.338;9.196;2022-10-24T15:54:44;1.70;;;1.10;;
41219;SDS011;26951;47.338;9.196;2022-10-24T15:57:28;1.23;;;0.75;;
41219;SDS011;26951;47.338;9.196;2022-10-24T16:00:13;0.80;;;0.80;;
41219;SDS011;26951;47.338;9.196;2022-10-24T16:02:58;1.95;;;0.82;;
41219;SDS011;26951;47.338;9.196;2022-10-24T16:05:45;1.80;;;1.13;;
41219;SDS011;26951;47.338;9.196;2022-10-24T16:08:32;1.85;;;0.65;;
41219;SDS011;26951;47.338;9.196;2022-10-24T16:11:16;1.10;;;1.00;;
41219;SDS011;26951;47.338;9.196;2022-10-24T16:14:00;0.98;;;0.60;;
41219;SDS011;26951;47.338;9.196;2022-10-24T16:16:44;1.85;;;0.80;;
41219;SDS011;26951;47.338;9.196;2022-10-24T16:19:28;2.15;;;1.05;;
41219;SDS011;26951;47.338;9.196;2022-10-24T16:22:14;0.73;;;0.70;;
41219;SDS011;26951;47.338;9.196;2022-10-24T16:24:58;1.77;;;0.85;;
41219;SDS011;26951;47.338;9.196;2022-10-24T16:27:44;0.98;;;0.80;;
41219;SDS011;26951;47.338;9.196;2022-10-24T16:30:31;0.75;;;0.75;;
41219;SDS011;26951;47.338;9.196;2022-10-24T16:33:19;1.60;;;1.00;;
41219;SDS011;26951;47.338;9.196;2022-10-24T16:38:49;1.02;;;0.90;;
41219;SDS011;26951;47.338;9.196;2022-10-24T16:41:33;2.85;;;0.95;;
41219;SDS011;26951;47.338;9.196;2022-10-24T16:44:17;2.17;;;1.00;;
41219;SDS011;26951;47.338;9.196;2022-10-24T16:47:02;2.20;;;0.80;;
41219;SDS011;26951;47.338;9.196;2022-10-24T16:49:47;0.77;;;0.50;;
41219;SDS011;26951;47.338;9.196;2022-10-24T16:52:31;1.58;;;0.70;;
41219;SDS011;26951;47.338;9.196;2022-10-24T16:55:15;2.15;;;0.73;;
41219;SDS011;26951;47.338;9.196;2022-10-24T16:57:59;2.15;;;0.80;;
41219;SDS011;26951;47.338;9.196;2022-10-24T17:00:44;5.68;;;0.68;;
41219;SDS011;26951;47.338;9.196;2022-10-24T17:03:29;0.88;;;0.68;;
41219;SDS011;26951;47.338;9.196;2022-10-24T17:06:13;1.33;;;0.93;;
41219;SDS011;26951;47.338;9.196;2022-10-24T17:08:58;0.90;;;0.68;;
41219;SDS011;26951;47.338;9.196;2022-10-24T17:11:42;0.85;;;0.80;;
41219;SDS011;26951;47.338;9.196;2022-10-24T17:14:28;1.15;;;0.65;;
41219;SDS011;26951;47.338;9.196;2022-10-24T17:17:12;0.82;;;0.65;;
41219;SDS011;26951;47.338;9.196;2022-10-24T17:19:56;7.65;;;1.05;;
41219;SDS011;26951;47.338;9.196;2022-10-24T17:22:41;0.75;;;0.60;;
41219;SDS011;26951;47.338;9.196;2022-10-24T17:25:27;2.13;;;0.73;;
41219;SDS011;26951;47.338;9.196;2022-10-24T17:28:12;0.85;;;0.70;;
41219;SDS011;26951;47.338;9.196;2022-10-24T17:30:57;0.90;;;0.50;;
41219;SDS011;26951;47.338;9.196;2022-10-24T17:33:41;1.52;;;0.70;;
41219;SDS011;26951;47.338;9.196;2022-10-24T17:36:27;1.02;;;0.65;;
41219;SDS011;26951;47.338;9.196;2022-10-24T17:39:21;1.60;;;0.77;;
41219;SDS011;26951;47.338;9.196;2022-10-24T17:42:08;0.65;;;0.60;;
41219;SDS011;26951;47.338;9.196;2022-10-24T17:44:52;2.60;;;0.68;;
41219;SDS011;26951;47.338;9.196;2022-10-24T17:47:37;0.60;;;0.60;;
41219;SDS011;26951;47.338;9.196;2022-10-24T17:50:21;3.92;;;0.90;;
41219;SDS011;26951;47.338;9.196;2022-10-24T17:53:05;0.55;;;0.55;;
41219;SDS011;26951;47.338;9.196;2022-10-24T17:58:34;1.83;;;0.60;;
41219;SDS011;26951;47.338;9.196;2022-10-24T18:01:18;2.25;;;0.80;;
41219;SDS011;26951;47.338;9.196;2022-10-24T18:04:03;0.60;;;0.60;;
41219;SDS011;26951;47.338;9.196;2022-10-24T18:06:47;0.60;;;0.60;;
41219;SDS011;26951;47.338;9.196;2022-10-24T18:09:31;1.95;;;0.65;;
41219;SDS011;26951;47.338;9.196;2022-10-24T18:12:19;1.33;;;0.63;;
41219;SDS011;26951;47.338;9.196;2022-10-24T18:15:04;1.13;;;0.70;;
41219;SDS011;26951;47.338;9.196;2022-10-24T18:17:52;0.60;;;0.60;;
41219;SDS011;26951;47.338;9.196;2022-10-24T18:20:36;1.33;;;0.60;;
41219;SDS011;26951;47.338;9.196;2022-10-24T18:23:20;2.50;;;0.77;;
41219;SDS011;26951;47.338;9.196;2022-10-24T18:26:05;0.75;;;0.60;;
41219;SDS011;26951;47.338;9.196;2022-10-24T18:28:54;2.15;;;0.73;;
41219;SDS011;26951;47.338;9.196;2022-10-24T18:31:38;5.70;;;0.80;;
41219;SDS011;26951;47.338;9.196;2022-10-24T18:34:22;0.80;;;0.60;;
41219;SDS011;26951;47.338;9.196;2022-10-24T18:37:07;0.70;;;0.68;;
41219;SDS011;26951;47.338;9.196;2022-10-24T18:39:51;0.98;;;0.80;;
41219;SDS011;26951;47.338;9.196;2022-10-24T18:45:41;2.58;;;1.13;;
41219;SDS011;26951;47.338;9.196;2022-10-24T18:48:25;0.75;;;0.70;;
41219;SDS011;26951;47.338;9.196;2022-10-24T18:51:16;0.85;;;0.80;;
41219;SDS011;26951;47.338;9.196;2022-10-24T18:54:18;0.93;;;0.82;;
41219;SDS011;26951;47.338;9.196;2022-10-24T18:57:15;1.20;;;0.70;;
41219;SDS011;26951;47.338;9.196;2022-10-24T19:00:05;4.53;;;1.42;;
41219;SDS011;26951;47.338;9.196;2022-10-24T19:08:52;1.13;;;0.80;;
41219;SDS011;26951;47.338;9.196;2022-10-24T19:11:36;1.38;;;0.80;;
41219;SDS011;26951;47.338;9.196;2022-10-24T19:14:20;1.70;;;0.73;;
41219;SDS011;26951;47.338;9.196;2022-10-24T19:17:05;0.60;;;0.60;;
41219;SDS011;26951;47.338;9.196;2022-10-24T19:19:49;1.83;;;0.70;;